sensor_id;sensor_type;location;lat;lon;timestamp;pressure;altitude;pressure_sealevel;temperature;humidity
18858;BME280;9558;50.178;8.370;2023-02-23T00:00:37;97848.75;;;7.93;100.00
18858;BME280;9558;50.178;8.370;2023-02-23T00:03:04;97847.16;;;7.92;100.00
18858;BME280;9558;50.178;8.370;2023-02-23T00:05:35;97855.06;;;7.90;100.00
18858;BME280;9558;50.178;8.370;2023-02-23T00:08:04;97846.34;;;7.91;100.00
18858;BME280;9558;50.178;8.370;2023-02-23T00:10:32;97851.50;;;7.91;100.00
18858;BME280;9558;50.178;8.370;2023-02-23T00:12:59;97855.53;;;7.94;100.00
18858;BME280;9558;50.178;8.370;2023-02-23T00:15:26;97851.50;;;7.91;100.00
18858;BME280;9558;50.178;8.370;2023-02-23T00:17:54;97842.34;;;7.89;100.00
18858;BME280;9558;50.178;8.370;2023-02-23T00:20:22;97850.69;;;7.91;100.00
18858;BME280;9558;50.178;8.370;2023-02-23T00:22:52;97846.50;;;7.90;100.00
18858;BME280;9558;50.178;8.370;2023-02-23T00:25:19;97843.94;;;7.90;100.00
18858;BME280;9558;50.178;8.370;2023-02-23T00:27:47;97843.75;;;7.91;100.00
18858;BME280;9558;50.178;8.370;2023-02-23T00:30:15;97843.59;;;7.93;100.00
18858;BME280;9558;50.178;8.370;2023-02-23T00:32:42;97838.44;;;7.93;100.00
18858;BME280;9558;50.178;8.370;2023-02-23T00:35:09;97846.81;;;7.95;100.00
18858;BME280;9558;50.178;8.370;2023-02-23T00:37:42;97844.41;;;7.93;100.00
18858;BME280;9558;50.178;8.370;2023-02-23T00:40:10;97846.81;;;7.95;100.00
18858;BME280;9558;50.178;8.370;2023-02-23T00:42:39;97850.19;;;7.95;100.00
18858;BME280;9558;50.178;8.370;2023-02-23T00:45:08;97848.44;;;7.96;100.00
18858;BME280;9558;50.178;8.370;2023-02-23T00:47:35;97849.25;;;7.96;100.00
18858;BME280;9558;50.178;8.370;2023-02-23T00:50:02;97854.22;;;7.98;100.00
18858;BME280;9558;50.178;8.370;2023-02-23T00:52:29;97844.88;;;7.97;100.00
18858;BME280;9558;50.178;8.370;2023-02-23T00:54:56;97848.44;;;7.96;100.00
18858;BME280;9558;50.178;8.370;2023-02-23T00:57:22;97842.97;;;7.99;100.00
18858;BME280;9558;50.178;8.370;2023-02-23T00:59:49;97846.97;;;8.02;100.00
18858;BME280;9558;50.178;8.370;2023-02-23T01:02:16;97857.13;;;8.03;100.00
18858;BME280;9558;50.178;8.370;2023-02-23T01:04:43;97845.81;;;8.04;100.00
18858;BME280;9558;50.178;8.370;2023-02-23T01:07:09;97852.13;;;8.02;100.00
18858;BME280;9558;50.178;8.370;2023-02-23T01:09:37;97854.84;;;8.00;100.00
18858;BME280;9558;50.178;8.370;2023-02-23T01:12:04;97849.88;;;7.99;100.00
18858;BME280;9558;50.178;8.370;2023-02-23T01:14:33;97852.44;;;7.99;100.00
18858;BME280;9558;50.178;8.370;2023-02-23T01:16:59;97849.69;;;8.00;100.00
18858;BME280;9558;50.178;8.370;2023-02-23T01:19:27;97848.91;;;8.00;100.00
18858;BME280;9558;50.178;8.370;2023-02-23T01:21:58;97852.28;;;8.00;100.00
18858;BME280;9558;50.178;8.370;2023-02-23T01:24:26;97848.72;;;8.01;100.00
18858;BME280;9558;50.178;8.370;2023-02-23T01:26:53;97847.78;;;8.02;100.00
18858;BME280;9558;50.178;8.370;2023-02-23T01:29:19;97847.94;;;8.01;100.00
18858;BME280;9558;50.178;8.370;2023-02-23T01:31:47;97843.75;;;8.00;100.00
18858;BME280;9558;50.178;8.370;2023-02-23T01:34:15;97845.53;;;7.99;100.00
18858;BME280;9558;50.178;8.370;2023-02-23T01:36:43;97835.41;;;7.98;100.00
18858;BME280;9558;50.178;8.370;2023-02-23T01:39:11;97838.13;;;7.96;100.00
18858;BME280;9558;50.178;8.370;2023-02-23T01:41:38;97841.69;;;7.95;100.00
18858;BME280;9558;50.178;8.370;2023-02-23T01:46:49;97840.88;;;7.94;100.00
18858;BME280;9558;50.178;8.370;2023-02-23T01:49:19;97838.31;;;7.94;100.00
18858;BME280;9558;50.178;8.370;2023-02-23T01:51:58;97838.44;;;7.93;100.00
18858;BME280;9558;50.178;8.370;2023-02-23T01:54:27;97843.59;;;7.93;100.00
18858;BME280;9558;50.178;8.370;2023-02-23T01:56:57;97836.84;;;7.92;100.00
18858;BME280;9558;50.178;8.370;2023-02-23T01:59:28;97836.03;;;7.91;100.00
18858;BME280;9558;50.178;8.370;2023-02-23T02:01:58;97842.34;;;7.89;100.00
18858;BME280;9558;50.178;8.370;2023-02-23T02:04:26;97838.31;;;7.86;100.00
18858;BME280;9558;50.178;8.370;2023-02-23T02:06:59;97829.16;;;7.84;100.00
18858;BME280;9558;50.178;8.370;2023-02-23T02:09:28;97836.09;;;7.83;100.00
18858;BME280;9558;50.178;8.370;2023-02-23T02:11:54;97837.84;;;7.83;100.00
18858;BME280;9558;50.178;8.370;2023-02-23T02:14:24;97838.84;;;7.82;100.00
18858;BME280;9558;50.178;8.370;2023-02-23T02:17:16;97833.69;;;7.82;100.00
18858;BME280;9558;50.178;8.370;2023-02-23T02:26:17;97825.13;;;7.81;100.00
18858;BME280;9558;50.178;8.370;2023-02-23T02:32:15;97815.66;;;7.82;100.00
18858;BME280;9558;50.178;8.370;2023-02-23T02:35:06;97816.59;;;7.81;100.00
18858;BME280;9558;50.178;8.370;2023-02-23T02:37:45;97815.16;;;7.78;100.00
18858;BME280;9558;50.178;8.370;2023-02-23T02:40:23;97807.59;;;7.76;100.00
18858;BME280;9558;50.178;8.370;2023-02-23T02:42:59;97817.91;;;7.76;100.00
18858;BME280;9558;50.178;8.370;2023-02-23T02:45:40;97811.13;;;7.75;100.00
18858;BME280;9558;50.178;8.370;2023-02-23T02:48:15;97814.66;;;7.74;100.00
18858;BME280;9558;50.178;8.370;2023-02-23T02:50:46;97806.94;;;7.74;100.00
18858;BME280;9558;50.178;8.370;2023-02-23T02:53:20;97812.25;;;7.73;100.00
18858;BME280;9558;50.178;8.370;2023-02-23T02:55:49;97803.91;;;7.71;100.00
18858;BME280;9558;50.178;8.370;2023-02-23T02:58:17;97809.84;;;7.71;100.00
18858;BME280;9558;50.178;8.370;2023-02-23T03:00:47;97801.50;;;7.69;100.00
18858;BME280;9558;50.178;8.370;2023-02-23T03:03:34;97809.22;;;7.69;100.00
18858;BME280;9558;50.178;8.370;2023-02-23T03:06:21;97805.03;;;7.68;100.00
18858;BME280;9558;50.178;8.370;2023-02-23T03:09:19;97797.47;;;7.67;100.00
18858;BME280;9558;50.178;8.370;2023-02-23T03:12:10;97800.84;;;7.67;100.00
18858;BME280;9558;50.178;8.370;2023-02-23T03:15:00;97801.84;;;7.66;100.00
18858;BME280;9558;50.178;8.370;2023-02-23T03:17:49;97801.66;;;7.68;100.00
18858;BME280;9558;50.178;8.370;2023-02-23T03:20:42;97806.66;;;7.69;100.00
18858;BME280;9558;50.178;8.370;2023-02-23T03:23:34;97806.66;;;7.69;100.00
18858;BME280;9558;50.178;8.370;2023-02-23T03:26:29;97809.84;;;7.71;100.00
18858;BME280;9558;50.178;8.370;2023-02-23T03:29:19;97814.03;;;7.72;100.00
18858;BME280;9558;50.178;8.370;2023-02-23T03:32:11;97808.91;;;7.72;100.00
18858;BME280;9558;50.178;8.370;2023-02-23T03:35:04;97808.72;;;7.74;100.00
18858;BME280;9558;50.178;8.370;2023-02-23T03:37:55;97816.28;;;7.75;100.00
18858;BME280;9558;50.178;8.370;2023-02-23T03:40:41;97809.22;;;7.77;100.00
18858;BME280;9558;50.178;8.370;2023-02-23T03:43:32;97814.38;;;7.77;100.00
18858;BME280;9558;50.178;8.370;2023-02-23T03:46:18;97810.81;;;7.78;100.00
18858;BME280;9558;50.178;8.370;2023-02-23T03:49:06;97811.63;;;7.79;100.00
18858;BME280;9558;50.178;8.370;2023-02-23T03:51:56;97814.38;;;7.77;100.00
18858;BME280;9558;50.178;8.370;2023-02-23T03:54:45;97807.25;;;7.79;100.00
18858;BME280;9558;50.178;8.370;2023-02-23T03:57:33;97818.34;;;7.80;100.00
18858;BME280;9558;50.178;8.370;2023-02-23T04:00:23;97808.88;;;7.81;100.00
18858;BME280;9558;50.178;8.370;2023-02-23T04:03:11;97810.81;;;7.78;100.00
18858;BME280;9558;50.178;8.370;2023-02-23T04:05:58;97812.41;;;7.79;100.00
18858;BME280;9558;50.178;8.370;2023-02-23T04:08:44;97814.19;;;7.79;100.00
18858;BME280;9558;50.178;8.370;2023-02-23T04:11:32;97812.41;;;7.79;100.00
18858;BME280;9558;50.178;8.370;2023-02-23T04:14:22;97816.78;;;7.79;100.00
18858;BME280;9558;50.178;8.370;2023-02-23T04:16:51;97814.03;;;7.81;100.00
18858;BME280;9558;50.178;8.370;2023-02-23T04:19:18;97819.97;;;7.81;100.00
18858;BME280;9558;50.178;8.370;2023-02-23T04:21:44;97813.69;;;7.84;100.00
18858;BME280;9558;50.178;8.370;2023-02-23T04:24:11;97814.81;;;7.81;100.00
18858;BME280;9558;50.178;8.370;2023-02-23T04:26:37;97815.66;;;7.82;100.00
18858;BME280;9558;50.178;8.370;2023-02-23T04:29:04;97822.38;;;7.83;100.00
18858;BME280;9558;50.178;8.370;2023-02-23T04:31:30;97819.63;;;7.84;100.00
18858;BME280;9558;50.178;8.370;2023-02-23T04:33:58;97824.00;;;7.84;100.00
18858;BME280;9558;50.178;8.370;2023-02-23T04:36:25;97832.34;;;7.86;100.00
18858;BME280;9558;50.178;8.370;2023-02-23T04:38:52;97824.63;;;7.86;100.00
18858;BME280;9558;50.178;8.370;2023-02-23T04:41:18;97822.03;;;7.86;100.00
18858;BME280;9558;50.178;8.370;2023-02-23T04:43:45;97827.19;;;7.86;100.00
18858;BME280;9558;50.178;8.370;2023-02-23T04:46:12;97827.03;;;7.87;100.00
18858;BME280;9558;50.178;8.370;2023-02-23T04:48:38;97826.06;;;7.88;100.00
18858;BME280;9558;50.178;8.370;2023-02-23T04:51:06;97819.78;;;7.91;100.00
18858;BME280;9558;50.178;8.370;2023-02-23T04:53:33;97818.16;;;7.90;100.00
18858;BME280;9558;50.178;8.370;2023-02-23T04:55:59;97823.31;;;7.90;100.00
18858;BME280;9558;50.178;8.370;2023-02-23T04:58:26;97825.91;;;7.90;100.00
18858;BME280;9558;50.178;8.370;2023-02-23T05:00:52;97828.47;;;7.90;100.00
18858;BME280;9558;50.178;8.370;2023-02-23T05:03:19;97829.13;;;7.92;100.00
18858;BME280;9558;50.178;8.370;2023-02-23T05:05:45;97828.13;;;7.93;100.00
18858;BME280;9558;50.178;8.370;2023-02-23T05:08:13;97829.75;;;7.94;100.00
18858;BME280;9558;50.178;8.370;2023-02-23T05:10:40;97825.41;;;7.94;100.00
18858;BME280;9558;50.178;8.370;2023-02-23T05:13:06;97821.84;;;7.95;100.00
18858;BME280;9558;50.178;8.370;2023-02-23T05:15:33;97826.03;;;7.96;100.00
18858;BME280;9558;50.178;8.370;2023-02-23T05:17:59;97819.09;;;7.97;100.00
18858;BME280;9558;50.178;8.370;2023-02-23T05:20:26;97823.47;;;7.96;100.00
18858;BME280;9558;50.178;8.370;2023-02-23T05:22:52;97825.88;;;7.98;100.00
18858;BME280;9558;50.178;8.370;2023-02-23T05:25:20;97825.88;;;7.98;100.00
18858;BME280;9558;50.178;8.370;2023-02-23T05:27:46;97829.06;;;8.00;100.00
18858;BME280;9558;50.178;8.370;2023-02-23T05:30:13;97832.66;;;7.99;100.00
18858;BME280;9558;50.178;8.370;2023-02-23T05:32:40;97827.16;;;8.02;100.00
18858;BME280;9558;50.178;8.370;2023-02-23T05:35:07;97824.56;;;8.02;100.00
18858;BME280;9558;50.178;8.370;2023-02-23T05:37:34;97831.53;;;8.02;100.00
18858;BME280;9558;50.178;8.370;2023-02-23T05:40:00;97831.53;;;8.02;100.00
18858;BME280;9558;50.178;8.370;2023-02-23T05:42:28;97832.31;;;8.02;100.00
18858;BME280;9558;50.178;8.370;2023-02-23T05:44:54;97832.94;;;8.04;100.00
18858;BME280;9558;50.178;8.370;2023-02-23T05:47:21;97836.34;;;8.05;100.00
18858;BME280;9558;50.178;8.370;2023-02-23T05:49:47;97828.78;;;8.03;100.00
18858;BME280;9558;50.178;8.370;2023-02-23T05:52:14;97832.94;;;8.04;100.00
18858;BME280;9558;50.178;8.370;2023-02-23T05:54:40;97837.13;;;8.05;100.00
18858;BME280;9558;50.178;8.370;2023-02-23T05:57:07;97834.53;;;8.05;100.00
18858;BME280;9558;50.178;8.370;2023-02-23T05:59:34;97831.97;;;8.05;100.00
18858;BME280;9558;50.178;8.370;2023-02-23T06:02:01;97830.19;;;8.06;100.00
18858;BME280;9558;50.178;8.370;2023-02-23T06:04:29;97836.94;;;8.07;100.00
18858;BME280;9558;50.178;8.370;2023-02-23T06:06:55;97834.22;;;8.08;100.00
18858;BME280;9558;50.178;8.370;2023-02-23T06:09:22;97838.41;;;8.09;100.00
18858;BME280;9558;50.178;8.370;2023-02-23T06:11:48;97835.81;;;8.09;100.00
18858;BME280;9558;50.178;8.370;2023-02-23T06:14:15;97833.41;;;8.08;100.00
18858;BME280;9558;50.178;8.370;2023-02-23T06:16:43;97838.41;;;8.09;100.00
18858;BME280;9558;50.178;8.370;2023-02-23T06:19:09;97834.84;;;8.10;100.00
18858;BME280;9558;50.178;8.370;2023-02-23T06:21:36;97843.56;;;8.09;100.00
18858;BME280;9558;50.178;8.370;2023-02-23T06:24:02;97840.97;;;8.09;100.00
18858;BME280;9558;50.178;8.370;2023-02-23T06:26:30;97845.97;;;8.11;100.00
18858;BME280;9558;50.178;8.370;2023-02-23T06:28:56;97847.56;;;8.12;100.00
18858;BME280;9558;50.178;8.370;2023-02-23T06:31:23;97851.59;;;8.15;100.00
18858;BME280;9558;50.178;8.370;2023-02-23T06:33:50;97847.69;;;8.19;100.00
18858;BME280;9558;50.178;8.370;2023-02-23T06:36:17;97849.03;;;8.15;100.00
18858;BME280;9558;50.178;8.370;2023-02-23T06:38:43;97848.19;;;8.14;100.00
18858;BME280;9558;50.178;8.370;2023-02-23T06:41:11;97859.47;;;8.13;100.00
18858;BME280;9558;50.178;8.370;2023-02-23T06:43:38;97860.28;;;8.13;100.00
18858;BME280;9558;50.178;8.370;2023-02-23T06:46:04;97860.28;;;8.13;100.00
18858;BME280;9558;50.178;8.370;2023-02-23T06:48:31;97863.50;;;8.16;100.00
18858;BME280;9558;50.178;8.370;2023-02-23T06:51:01;97858.00;;;8.19;100.00
18858;BME280;9558;50.178;8.370;2023-02-23T06:53:28;97867.53;;;8.18;100.00
18858;BME280;9558;50.178;8.370;2023-02-23T06:55:55;97865.91;;;8.17;100.00
18858;BME280;9558;50.178;8.370;2023-02-23T06:58:21;97874.75;;;8.23;100.00
18858;BME280;9558;50.178;8.370;2023-02-23T07:00:48;97870.75;;;8.20;100.00
18858;BME280;9558;50.178;8.370;2023-02-23T07:03:14;97878.63;;;8.19;100.00
18858;BME280;9558;50.178;8.370;2023-02-23T07:05:41;97876.69;;;8.21;100.00
18858;BME280;9558;50.178;8.370;2023-02-23T07:08:09;97879.09;;;8.22;100.00
18858;BME280;9558;50.178;8.370;2023-02-23T07:10:35;97876.34;;;8.24;100.00
18858;BME280;9558;50.178;8.370;2023-02-23T07:13:02;97875.41;;;8.25;100.00
18858;BME280;9558;50.178;8.370;2023-02-23T07:15:28;97886.34;;;8.27;100.00
18858;BME280;9558;50.178;8.370;2023-02-23T07:17:55;97884.41;;;8.29;100.00
18858;BME280;9558;50.178;8.370;2023-02-23T07:20:21;97879.69;;;8.33;100.00
18858;BME280;9558;50.178;8.370;2023-02-23T07:22:48;97883.72;;;8.35;100.00
18858;BME280;9558;50.178;8.370;2023-02-23T07:25:16;97887.75;;;8.38;100.00
18858;BME280;9558;50.178;8.370;2023-02-23T07:27:43;97890.00;;;8.41;100.00
18858;BME280;9558;50.178;8.370;2023-02-23T07:30:10;97887.91;;;8.44;100.00
18858;BME280;9558;50.178;8.370;2023-02-23T07:32:37;97885.78;;;8.48;100.00
18858;BME280;9558;50.178;8.370;2023-02-23T07:35:05;97885.47;;;8.51;100.00
18858;BME280;9558;50.178;8.370;2023-02-23T07:37:31;97887.69;;;8.54;100.00
18858;BME280;9558;50.178;8.370;2023-02-23T07:39:58;97888.16;;;8.58;100.00
18858;BME280;9558;50.178;8.370;2023-02-23T07:42:26;97892.03;;;8.62;100.00
18858;BME280;9558;50.178;8.370;2023-02-23T07:44:52;97891.84;;;8.63;100.00
18858;BME280;9558;50.178;8.370;2023-02-23T07:47:19;97892.66;;;8.64;100.00
18858;BME280;9558;50.178;8.370;2023-02-23T07:49:46;97887.97;;;8.68;100.00
18858;BME280;9558;50.178;8.370;2023-02-23T07:52:16;97893.13;;;8.68;100.00
18858;BME280;9558;50.178;8.370;2023-02-23T07:54:42;97900.69;;;8.69;100.00
18858;BME280;9558;50.178;8.370;2023-02-23T07:57:09;97896.16;;;8.71;100.00
18858;BME280;9558;50.178;8.370;2023-02-23T07:59:37;97908.72;;;8.74;100.00
18858;BME280;9558;50.178;8.370;2023-02-23T08:02:03;97903.22;;;8.77;100.00
18858;BME280;9558;50.178;8.370;2023-02-23T08:04:31;97907.22;;;8.80;100.00
18858;BME280;9558;50.178;8.370;2023-02-23T08:06:57;97909.31;;;8.85;100.00
18858;BME280;9558;50.178;8.370;2023-02-23T08:09:24;97909.75;;;8.88;100.00
18858;BME280;9558;50.178;8.370;2023-02-23T08:11:50;97909.59;;;8.90;100.00
18858;BME280;9558;50.178;8.370;2023-02-23T08:14:17;97901.50;;;8.93;100.00
18858;BME280;9558;50.178;8.370;2023-02-23T08:16:47;97906.34;;;8.96;100.00
18858;BME280;9558;50.178;8.370;2023-02-23T08:19:14;97913.75;;;8.99;100.00
18858;BME280;9558;50.178;8.370;2023-02-23T08:21:40;97915.97;;;9.02;100.00
18858;BME280;9558;50.178;8.370;2023-02-23T08:24:07;97915.00;;;9.03;100.00
18858;BME280;9558;50.178;8.370;2023-02-23T08:26:35;97917.88;;;9.08;100.00
18858;BME280;9558;50.178;8.370;2023-02-23T08:29:03;97915.28;;;9.08;100.00
18858;BME280;9558;50.178;8.370;2023-02-23T08:31:30;97914.16;;;9.11;100.00
18858;BME280;9558;50.178;8.370;2023-02-23T08:33:57;97909.09;;;9.18;100.00
18858;BME280;9558;50.178;8.370;2023-02-23T08:36:24;97910.69;;;9.19;100.00
18858;BME280;9558;50.178;8.370;2023-02-23T08:38:51;97919.69;;;9.23;100.00
18858;BME280;9558;50.178;8.370;2023-02-23T08:41:19;97916.78;;;9.26;100.00
18858;BME280;9558;50.178;8.370;2023-02-23T08:43:46;97921.63;;;9.29;100.00
18858;BME280;9558;50.178;8.370;2023-02-23T08:46:13;97917.06;;;9.31;100.00
18858;BME280;9558;50.178;8.370;2023-02-23T08:48:41;97925.28;;;9.34;100.00
18858;BME280;9558;50.178;8.370;2023-02-23T08:51:09;97924.94;;;9.38;100.00
18858;BME280;9558;50.178;8.370;2023-02-23T08:53:35;97920.56;;;9.38;100.00
18858;BME280;9558;50.178;8.370;2023-02-23T08:56:04;97919.59;;;9.39;100.00
18858;BME280;9558;50.178;8.370;2023-02-23T08:58:31;97927.34;;;9.39;100.00
18858;BME280;9558;50.178;8.370;2023-02-23T09:00:59;97928.13;;;9.40;100.00
18858;BME280;9558;50.178;8.370;2023-02-23T09:03:26;97929.75;;;9.41;100.00
18858;BME280;9558;50.178;8.370;2023-02-23T09:06:03;97931.38;;;9.42;100.00
18858;BME280;9558;50.178;8.370;2023-02-23T09:08:31;97932.94;;;9.43;100.00
18858;BME280;9558;50.178;8.370;2023-02-23T09:10:58;97928.44;;;9.45;100.00
18858;BME280;9558;50.178;8.370;2023-02-23T09:13:25;97930.66;;;9.48;100.00
18858;BME280;9558;50.178;8.370;2023-02-23T09:15:52;97936.44;;;9.50;100.00
18858;BME280;9558;50.178;8.370;2023-02-23T09:18:19;97942.25;;;9.52;100.00
18858;BME280;9558;50.178;8.370;2023-02-23T09:20:48;97945.28;;;9.56;100.00
18858;BME280;9558;50.178;8.370;2023-02-23T09:23:15;97940.41;;;9.61;100.00
18858;BME280;9558;50.178;8.370;2023-02-23T09:25:43;97937.66;;;9.62;100.00
18858;BME280;9558;50.178;8.370;2023-02-23T09:28:11;97939.88;;;9.65;100.00
18858;BME280;9558;50.178;8.370;2023-02-23T09:30:39;97934.19;;;9.70;100.00
18858;BME280;9558;50.178;8.370;2023-02-23T09:33:06;97935.09;;;9.77;100.00
18858;BME280;9558;50.178;8.370;2023-02-23T09:35:33;97935.00;;;9.85;100.00
18858;BME280;9558;50.178;8.370;2023-02-23T09:38:01;97939.81;;;9.89;100.00
18858;BME280;9558;50.178;8.370;2023-02-23T09:40:33;97932.34;;;9.94;100.00
18858;BME280;9558;50.178;8.370;2023-02-23T09:43:11;97939.03;;;10.03;100.00
18858;BME280;9558;50.178;8.370;2023-02-23T09:45:41;97937.25;;;10.18;100.00
18858;BME280;9558;50.178;8.370;2023-02-23T09:48:13;97947.28;;;10.36;100.00
18858;BME280;9558;50.178;8.370;2023-02-23T09:50:43;97956.75;;;10.59;100.00
18858;BME280;9558;50.178;8.370;2023-02-23T09:53:23;97954.75;;;10.76;100.00
18858;BME280;9558;50.178;8.370;2023-02-23T09:55:52;97956.56;;;10.97;100.00
18858;BME280;9558;50.178;8.370;2023-02-23T09:58:23;97949.38;;;11.14;100.00
18858;BME280;9558;50.178;8.370;2023-02-23T10:01:04;97952.59;;;11.38;100.00
18858;BME280;9558;50.178;8.370;2023-02-23T10:03:35;97954.56;;;11.57;100.00
18858;BME280;9558;50.178;8.370;2023-02-23T10:06:08;97955.34;;;11.80;100.00
18858;BME280;9558;50.178;8.370;2023-02-23T10:08:46;97949.13;;;12.02;100.00
18858;BME280;9558;50.178;8.370;2023-02-23T10:11:23;97955.03;;;12.24;100.00
18858;BME280;9558;50.178;8.370;2023-02-23T10:14:04;97955.34;;;12.43;100.00
18858;BME280;9558;50.178;8.370;2023-02-23T10:16:43;97958.63;;;12.58;100.00
18858;BME280;9558;50.178;8.370;2023-02-23T10:19:13;97959.69;;;12.71;100.00
18858;BME280;9558;50.178;8.370;2023-02-23T10:21:49;97955.50;;;12.83;100.00
18858;BME280;9558;50.178;8.370;2023-02-23T10:24:20;97960.53;;;12.91;100.00
18858;BME280;9558;50.178;8.370;2023-02-23T10:26:51;97965.34;;;12.94;100.00
18858;BME280;9558;50.178;8.370;2023-02-23T10:29:25;97964.75;;;12.92;100.00
18858;BME280;9558;50.178;8.370;2023-02-23T10:32:01;97962.34;;;12.91;100.00
18858;BME280;9558;50.178;8.370;2023-02-23T10:34:29;97967.53;;;12.91;100.00
18858;BME280;9558;50.178;8.370;2023-02-23T10:36:58;97965.13;;;12.89;100.00
18858;BME280;9558;50.178;8.370;2023-02-23T10:39:27;97971.50;;;12.87;100.00
18858;BME280;9558;50.178;8.370;2023-02-23T10:41:56;97964.13;;;12.84;100.00
18858;BME280;9558;50.178;8.370;2023-02-23T10:44:26;97967.06;;;12.74;100.00
18858;BME280;9558;50.178;8.370;2023-02-23T10:46:56;97971.63;;;12.65;100.00
18858;BME280;9558;50.178;8.370;2023-02-23T10:49:26;97972.19;;;12.54;100.00
18858;BME280;9558;50.178;8.370;2023-02-23T10:51:54;97979.34;;;12.45;100.00
18858;BME280;9558;50.178;8.370;2023-02-23T10:54:43;97974.03;;;12.32;100.00
18858;BME280;9558;50.178;8.370;2023-02-23T10:57:18;97978.59;;;12.23;100.00
18858;BME280;9558;50.178;8.370;2023-02-23T11:02:41;97977.22;;;11.99;100.00
18858;BME280;9558;50.178;8.370;2023-02-23T11:05:27;97975.13;;;11.87;100.00
18858;BME280;9558;50.178;8.370;2023-02-23T11:08:08;97974.91;;;11.82;100.00
18858;BME280;9558;50.178;8.370;2023-02-23T11:10:34;97980.09;;;11.82;100.00
18858;BME280;9558;50.178;8.370;2023-02-23T11:13:01;97972.31;;;11.82;100.00
18858;BME280;9558;50.178;8.370;2023-02-23T11:15:32;97974.53;;;11.85;100.00
18858;BME280;9558;50.178;8.370;2023-02-23T11:18:00;97972.53;;;11.87;100.00
18858;BME280;9558;50.178;8.370;2023-02-23T11:20:30;97972.72;;;11.86;100.00
18858;BME280;9558;50.178;8.370;2023-02-23T11:23:00;97976.50;;;11.83;100.00
18858;BME280;9558;50.178;8.370;2023-02-23T11:25:33;97978.47;;;11.81;100.00
18858;BME280;9558;50.178;8.370;2023-02-23T11:28:00;97976.88;;;11.80;100.00
18858;BME280;9558;50.178;8.370;2023-02-23T11:30:32;97972.50;;;11.81;100.00
18858;BME280;9558;50.178;8.370;2023-02-23T11:33:02;97977.69;;;11.81;100.00
18858;BME280;9558;50.178;8.370;2023-02-23T11:35:36;97973.66;;;11.78;100.00
18858;BME280;9558;50.178;8.370;2023-02-23T11:38:18;97973.06;;;11.76;100.00
18858;BME280;9558;50.178;8.370;2023-02-23T11:40:57;97975.03;;;11.74;100.00
18858;BME280;9558;50.178;8.370;2023-02-23T11:43:24;97972.81;;;11.71;100.00
18858;BME280;9558;50.178;8.370;2023-02-23T11:45:53;97975.16;;;11.66;100.00
18858;BME280;9558;50.178;8.370;2023-02-23T11:48:25;97973.06;;;11.54;100.00
18858;BME280;9558;50.178;8.370;2023-02-23T11:50:53;97970.97;;;11.43;100.00
18858;BME280;9558;50.178;8.370;2023-02-23T11:53:27;97970.09;;;11.36;100.00
18858;BME280;9558;50.178;8.370;2023-02-23T11:55:57;97962.47;;;11.28;100.00
18858;BME280;9558;50.178;8.370;2023-02-23T11:58:36;97972.31;;;11.17;100.00
18858;BME280;9558;50.178;8.370;2023-02-23T12:01:06;97969.84;;;11.09;100.00
18858;BME280;9558;50.178;8.370;2023-02-23T12:03:37;97966.56;;;11.00;100.00
18858;BME280;9558;50.178;8.370;2023-02-23T12:06:08;97960.69;;;10.92;100.00
18858;BME280;9558;50.178;8.370;2023-02-23T12:08:40;97966.41;;;10.87;100.00
18858;BME280;9558;50.178;8.370;2023-02-23T12:11:11;97965.91;;;10.77;100.00
18858;BME280;9558;50.178;8.370;2023-02-23T12:13:43;97957.06;;;10.71;100.00
18858;BME280;9558;50.178;8.370;2023-02-23T12:16:17;97956.97;;;10.64;100.00
18858;BME280;9558;50.178;8.370;2023-02-23T12:18:48;97953.34;;;10.59;100.00
18858;BME280;9558;50.178;8.370;2023-02-23T12:21:26;97955.22;;;10.50;100.00
18858;BME280;9558;50.178;8.370;2023-02-23T12:24:02;97954.16;;;10.44;100.00
18858;BME280;9558;50.178;8.370;2023-02-23T12:26:32;97950.31;;;10.40;100.00
18858;BME280;9558;50.178;8.370;2023-02-23T12:29:03;97950.84;;;10.35;100.00
18858;BME280;9558;50.178;8.370;2023-02-23T12:31:36;97951.50;;;10.37;100.00
18858;BME280;9558;50.178;8.370;2023-02-23T12:34:11;97949.09;;;10.36;100.00
18858;BME280;9558;50.178;8.370;2023-02-23T12:36:42;97948.25;;;10.35;100.00
18858;BME280;9558;50.178;8.370;2023-02-23T12:39:16;97952.28;;;10.38;100.00
18858;BME280;9558;50.178;8.370;2023-02-23T12:41:51;97947.72;;;10.40;100.00
18858;BME280;9558;50.178;8.370;2023-02-23T12:44:30;97947.81;;;10.47;100.00
18858;BME280;9558;50.178;8.370;2023-02-23T12:47:04;97950.50;;;10.53;100.00
18858;BME280;9558;50.178;8.370;2023-02-23T12:49:36;97949.41;;;10.63;100.00
18858;BME280;9558;50.178;8.370;2023-02-23T12:52:19;97944.31;;;10.69;100.00
18858;BME280;9558;50.178;8.370;2023-02-23T12:54:47;97942.41;;;10.78;100.00
18858;BME280;9558;50.178;8.370;2023-02-23T12:57:21;97946.44;;;10.81;100.00
18858;BME280;9558;50.178;8.370;2023-02-23T13:02:52;97947.72;;;10.92;100.00
18858;BME280;9558;50.178;8.370;2023-02-23T13:05:25;97947.41;;;10.95;100.00
18858;BME280;9558;50.178;8.370;2023-02-23T13:08:05;97943.97;;;10.94;100.00
18858;BME280;9558;50.178;8.370;2023-02-23T13:10:42;97939.00;;;10.93;100.00
18858;BME280;9558;50.178;8.370;2023-02-23T13:13:21;97941.50;;;10.86;100.00
18858;BME280;9558;50.178;8.370;2023-02-23T13:15:57;97934.94;;;10.83;100.00
18858;BME280;9558;50.178;8.370;2023-02-23T13:18:30;97940.03;;;10.77;100.00
18858;BME280;9558;50.178;8.370;2023-02-23T13:21:03;97941.72;;;10.69;100.00
18858;BME280;9558;50.178;8.370;2023-02-23T13:23:33;97949.78;;;10.60;100.00
18858;BME280;9558;50.178;8.370;2023-02-23T13:26:10;97942.09;;;10.51;100.00
18858;BME280;9558;50.178;8.370;2023-02-23T13:28:48;97944.81;;;10.43;100.00
18858;BME280;9558;50.178;8.370;2023-02-23T13:31:22;97944.59;;;10.30;100.00
18858;BME280;9558;50.178;8.370;2023-02-23T13:33:52;97936.47;;;10.18;100.00
18858;BME280;9558;50.178;8.370;2023-02-23T13:36:20;97936.13;;;10.06;100.00
18858;BME280;9558;50.178;8.370;2023-02-23T13:39:03;97933.44;;;9.99;100.00
18858;BME280;9558;50.178;8.370;2023-02-23T13:41:36;97936.81;;;10.00;100.00
18858;BME280;9558;50.178;8.370;2023-02-23T13:44:11;97938.88;;;10.05;100.00
18858;BME280;9558;50.178;8.370;2023-02-23T13:46:44;97925.78;;;10.06;100.00